sensor_id;sensor_type;location;lat;lon;timestamp;P1;durP1;ratioP1;P2;durP2;ratioP2
44832;SDS011;30569;51.252;9.830;2024-01-15T00:01:53;29.87;;;13.40;;
44832;SDS011;30569;51.252;9.830;2024-01-15T00:04:19;24.60;;;11.43;;
44832;SDS011;30569;51.252;9.830;2024-01-15T00:06:44;24.60;;;10.93;;
44832;SDS011;30569;51.252;9.830;2024-01-15T00:09:10;24.53;;;9.57;;
44832;SDS011;30569;51.252;9.830;2024-01-15T00:11:36;26.70;;;10.80;;
44832;SDS011;30569;51.252;9.830;2024-01-15T00:14:01;21.73;;;10.67;;
44832;SDS011;30569;51.252;9.830;2024-01-15T00:16:28;26.63;;;10.13;;
44832;SDS011;30569;51.252;9.830;2024-01-15T00:18:53;24.37;;;11.10;;
44832;SDS011;30569;51.252;9.830;2024-01-15T00:21:19;25.57;;;10.47;;
44832;SDS011;30569;51.252;9.830;2024-01-15T00:23:44;22.97;;;11.43;;
44832;SDS011;30569;51.252;9.830;2024-01-15T00:26:10;23.67;;;10.07;;
44832;SDS011;30569;51.252;9.830;2024-01-15T00:28:37;21.23;;;10.00;;
44832;SDS011;30569;51.252;9.830;2024-01-15T00:31:03;25.40;;;11.23;;
44832;SDS011;30569;51.252;9.830;2024-01-15T00:33:31;19.87;;;9.73;;
44832;SDS011;30569;51.252;9.830;2024-01-15T00:35:57;30.07;;;11.43;;
44832;SDS011;30569;51.252;9.830;2024-01-15T00:38:22;26.03;;;10.43;;
44832;SDS011;30569;51.252;9.830;2024-01-15T00:40:48;24.13;;;9.97;;
44832;SDS011;30569;51.252;9.830;2024-01-15T00:43:14;28.57;;;10.20;;
44832;SDS011;30569;51.252;9.830;2024-01-15T00:45:40;23.00;;;10.70;;
44832;SDS011;30569;51.252;9.830;2024-01-15T00:48:05;21.37;;;9.87;;
44832;SDS011;30569;51.252;9.830;2024-01-15T00:50:31;22.70;;;9.50;;
44832;SDS011;30569;51.252;9.830;2024-01-15T00:52:57;29.37;;;11.20;;
44832;SDS011;30569;51.252;9.830;2024-01-15T00:55:22;27.17;;;11.20;;
44832;SDS011;30569;51.252;9.830;2024-01-15T00:57:48;25.73;;;11.50;;
44832;SDS011;30569;51.252;9.830;2024-01-15T01:00:13;25.53;;;10.53;;
44832;SDS011;30569;51.252;9.830;2024-01-15T01:02:39;22.00;;;11.03;;
44832;SDS011;30569;51.252;9.830;2024-01-15T01:05:05;25.07;;;10.07;;
44832;SDS011;30569;51.252;9.830;2024-01-15T01:07:30;19.07;;;9.90;;
44832;SDS011;30569;51.252;9.830;2024-01-15T01:09:56;21.17;;;10.37;;
44832;SDS011;30569;51.252;9.830;2024-01-15T01:12:22;20.17;;;10.00;;
44832;SDS011;30569;51.252;9.830;2024-01-15T01:14:48;19.83;;;9.17;;
44832;SDS011;30569;51.252;9.830;2024-01-15T01:17:13;21.10;;;8.40;;
44832;SDS011;30569;51.252;9.830;2024-01-15T01:19:39;23.70;;;10.97;;
44832;SDS011;30569;51.252;9.830;2024-01-15T01:22:04;22.47;;;9.70;;
44832;SDS011;30569;51.252;9.830;2024-01-15T01:24:30;19.53;;;9.30;;
44832;SDS011;30569;51.252;9.830;2024-01-15T01:26:55;22.23;;;10.40;;
44832;SDS011;30569;51.252;9.830;2024-01-15T01:29:21;25.83;;;11.40;;
44832;SDS011;30569;51.252;9.830;2024-01-15T01:31:47;25.77;;;11.27;;
44832;SDS011;30569;51.252;9.830;2024-01-15T01:34:14;27.07;;;11.43;;
44832;SDS011;30569;51.252;9.830;2024-01-15T01:36:40;25.20;;;11.00;;
44832;SDS011;30569;51.252;9.830;2024-01-15T01:39:06;24.73;;;11.17;;
44832;SDS011;30569;51.252;9.830;2024-01-15T01:41:32;22.10;;;10.93;;
44832;SDS011;30569;51.252;9.830;2024-01-15T01:43:58;22.20;;;10.27;;
44832;SDS011;30569;51.252;9.830;2024-01-15T01:46:24;21.30;;;9.70;;
44832;SDS011;30569;51.252;9.830;2024-01-15T01:48:51;21.80;;;9.73;;
44832;SDS011;30569;51.252;9.830;2024-01-15T01:51:17;18.73;;;8.70;;
44832;SDS011;30569;51.252;9.830;2024-01-15T01:53:44;20.63;;;8.73;;
44832;SDS011;30569;51.252;9.830;2024-01-15T01:56:10;21.93;;;8.70;;
44832;SDS011;30569;51.252;9.830;2024-01-15T01:58:36;17.07;;;8.17;;
44832;SDS011;30569;51.252;9.830;2024-01-15T02:01:02;19.50;;;8.73;;
44832;SDS011;30569;51.252;9.830;2024-01-15T02:03:28;19.87;;;8.60;;
44832;SDS011;30569;51.252;9.830;2024-01-15T02:05:55;21.33;;;9.70;;
44832;SDS011;30569;51.252;9.830;2024-01-15T02:08:21;19.60;;;8.03;;
44832;SDS011;30569;51.252;9.830;2024-01-15T02:10:47;19.23;;;9.17;;
44832;SDS011;30569;51.252;9.830;2024-01-15T02:13:13;20.40;;;8.80;;
44832;SDS011;30569;51.252;9.830;2024-01-15T02:15:39;15.23;;;6.97;;
44832;SDS011;30569;51.252;9.830;2024-01-15T02:18:05;17.27;;;8.63;;
44832;SDS011;30569;51.252;9.830;2024-01-15T02:20:34;19.27;;;8.77;;
44832;SDS011;30569;51.252;9.830;2024-01-15T02:25:37;23.00;;;9.73;;
44832;SDS011;30569;51.252;9.830;2024-01-15T02:28:09;25.07;;;10.20;;
44832;SDS011;30569;51.252;9.830;2024-01-15T02:30:39;14.87;;;7.80;;
44832;SDS011;30569;51.252;9.830;2024-01-15T02:33:06;21.30;;;10.30;;
44832;SDS011;30569;51.252;9.830;2024-01-15T02:35:32;23.80;;;11.23;;
44832;SDS011;30569;51.252;9.830;2024-01-15T02:37:58;21.93;;;9.97;;
44832;SDS011;30569;51.252;9.830;2024-01-15T02:40:24;20.40;;;10.10;;
44832;SDS011;30569;51.252;9.830;2024-01-15T02:42:50;15.90;;;8.27;;
44832;SDS011;30569;51.252;9.830;2024-01-15T02:45:15;22.17;;;9.33;;
44832;SDS011;30569;51.252;9.830;2024-01-15T02:47:41;14.00;;;7.63;;
44832;SDS011;30569;51.252;9.830;2024-01-15T02:50:07;20.37;;;8.63;;
44832;SDS011;30569;51.252;9.830;2024-01-15T02:52:33;19.90;;;8.90;;
44832;SDS011;30569;51.252;9.830;2024-01-15T02:54:58;17.00;;;8.87;;
44832;SDS011;30569;51.252;9.830;2024-01-15T02:57:24;17.37;;;8.57;;
44832;SDS011;30569;51.252;9.830;2024-01-15T02:59:49;20.37;;;8.77;;
44832;SDS011;30569;51.252;9.830;2024-01-15T03:02:15;19.43;;;8.23;;
44832;SDS011;30569;51.252;9.830;2024-01-15T03:04:44;18.67;;;8.40;;
44832;SDS011;30569;51.252;9.830;2024-01-15T03:07:09;15.47;;;8.40;;
44832;SDS011;30569;51.252;9.830;2024-01-15T03:09:35;15.30;;;8.70;;
44832;SDS011;30569;51.252;9.830;2024-01-15T03:12:01;15.57;;;7.67;;
44832;SDS011;30569;51.252;9.830;2024-01-15T03:14:26;17.60;;;7.80;;
44832;SDS011;30569;51.252;9.830;2024-01-15T03:16:52;12.20;;;6.33;;
44832;SDS011;30569;51.252;9.830;2024-01-15T03:19:18;14.13;;;7.17;;
44832;SDS011;30569;51.252;9.830;2024-01-15T03:21:44;13.33;;;7.47;;
44832;SDS011;30569;51.252;9.830;2024-01-15T03:24:09;14.40;;;7.37;;
44832;SDS011;30569;51.252;9.830;2024-01-15T03:26:35;17.60;;;7.90;;
44832;SDS011;30569;51.252;9.830;2024-01-15T03:29:00;15.53;;;7.27;;
44832;SDS011;30569;51.252;9.830;2024-01-15T03:31:26;14.70;;;8.37;;
44832;SDS011;30569;51.252;9.830;2024-01-15T03:33:52;16.20;;;7.83;;
44832;SDS011;30569;51.252;9.830;2024-01-15T03:36:17;13.83;;;7.50;;
44832;SDS011;30569;51.252;9.830;2024-01-15T03:38:43;16.43;;;6.80;;
44832;SDS011;30569;51.252;9.830;2024-01-15T03:41:08;16.60;;;7.33;;
44832;SDS011;30569;51.252;9.830;2024-01-15T03:43:34;15.63;;;7.83;;
44832;SDS011;30569;51.252;9.830;2024-01-15T03:46:00;14.90;;;7.60;;
44832;SDS011;30569;51.252;9.830;2024-01-15T03:48:27;16.67;;;7.70;;
44832;SDS011;30569;51.252;9.830;2024-01-15T03:50:52;15.70;;;7.93;;
44832;SDS011;30569;51.252;9.830;2024-01-15T03:53:18;12.70;;;6.40;;
44832;SDS011;30569;51.252;9.830;2024-01-15T03:55:44;14.30;;;6.97;;
44832;SDS011;30569;51.252;9.830;2024-01-15T03:58:09;14.23;;;7.73;;
44832;SDS011;30569;51.252;9.830;2024-01-15T04:00:35;15.53;;;7.37;;
44832;SDS011;30569;51.252;9.830;2024-01-15T04:03:00;13.53;;;7.60;;
44832;SDS011;30569;51.252;9.830;2024-01-15T04:05:26;16.20;;;7.97;;
44832;SDS011;30569;51.252;9.830;2024-01-15T04:07:51;9.47;;;5.63;;
44832;SDS011;30569;51.252;9.830;2024-01-15T04:10:17;15.57;;;8.40;;
44832;SDS011;30569;51.252;9.830;2024-01-15T04:12:43;17.43;;;7.80;;
44832;SDS011;30569;51.252;9.830;2024-01-15T04:15:11;15.20;;;7.40;;
44832;SDS011;30569;51.252;9.830;2024-01-15T04:17:37;14.93;;;7.40;;
44832;SDS011;30569;51.252;9.830;2024-01-15T04:20:02;23.07;;;8.50;;
44832;SDS011;30569;51.252;9.830;2024-01-15T04:22:28;23.47;;;11.63;;
44832;SDS011;30569;51.252;9.830;2024-01-15T04:24:54;9.77;;;5.67;;
44832;SDS011;30569;51.252;9.830;2024-01-15T04:27:19;14.50;;;7.47;;
44832;SDS011;30569;51.252;9.830;2024-01-15T04:29:45;16.27;;;8.30;;
44832;SDS011;30569;51.252;9.830;2024-01-15T04:32:10;12.60;;;7.63;;
44832;SDS011;30569;51.252;9.830;2024-01-15T04:34:36;13.67;;;8.07;;
44832;SDS011;30569;51.252;9.830;2024-01-15T04:37:01;13.60;;;7.07;;
44832;SDS011;30569;51.252;9.830;2024-01-15T04:39:27;16.37;;;7.37;;
44832;SDS011;30569;51.252;9.830;2024-01-15T04:41:52;15.93;;;7.83;;
44832;SDS011;30569;51.252;9.830;2024-01-15T04:44:18;15.43;;;7.83;;
44832;SDS011;30569;51.252;9.830;2024-01-15T04:46:44;15.13;;;7.20;;
44832;SDS011;30569;51.252;9.830;2024-01-15T04:49:10;17.73;;;7.73;;
44832;SDS011;30569;51.252;9.830;2024-01-15T04:51:36;15.77;;;7.27;;
44832;SDS011;30569;51.252;9.830;2024-01-15T04:54:01;14.67;;;7.90;;
44832;SDS011;30569;51.252;9.830;2024-01-15T04:56:27;12.40;;;5.83;;
44832;SDS011;30569;51.252;9.830;2024-01-15T04:58:52;14.40;;;7.90;;
44832;SDS011;30569;51.252;9.830;2024-01-15T05:01:18;11.87;;;6.53;;
44832;SDS011;30569;51.252;9.830;2024-01-15T05:03:44;15.27;;;7.10;;
44832;SDS011;30569;51.252;9.830;2024-01-15T05:06:09;12.50;;;7.00;;
44832;SDS011;30569;51.252;9.830;2024-01-15T05:08:35;11.50;;;6.87;;
44832;SDS011;30569;51.252;9.830;2024-01-15T05:11:00;13.70;;;7.00;;
44832;SDS011;30569;51.252;9.830;2024-01-15T05:13:26;13.10;;;7.30;;
44832;SDS011;30569;51.252;9.830;2024-01-15T05:15:51;13.80;;;7.20;;
44832;SDS011;30569;51.252;9.830;2024-01-15T05:18:17;11.33;;;6.10;;
44832;SDS011;30569;51.252;9.830;2024-01-15T05:20:42;14.83;;;7.27;;
44832;SDS011;30569;51.252;9.830;2024-01-15T05:23:08;18.10;;;7.50;;
44832;SDS011;30569;51.252;9.830;2024-01-15T05:25:34;18.60;;;7.17;;
44832;SDS011;30569;51.252;9.830;2024-01-15T05:27:59;14.77;;;7.73;;
44832;SDS011;30569;51.252;9.830;2024-01-15T05:30:25;14.10;;;7.67;;
44832;SDS011;30569;51.252;9.830;2024-01-15T05:32:51;16.47;;;7.30;;
44832;SDS011;30569;51.252;9.830;2024-01-15T05:35:16;15.47;;;7.90;;
44832;SDS011;30569;51.252;9.830;2024-01-15T05:37:43;14.40;;;6.80;;
44832;SDS011;30569;51.252;9.830;2024-01-15T05:40:10;16.57;;;8.97;;
44832;SDS011;30569;51.252;9.830;2024-01-15T05:42:37;13.97;;;6.57;;
44832;SDS011;30569;51.252;9.830;2024-01-15T05:45:03;13.67;;;6.60;;
44832;SDS011;30569;51.252;9.830;2024-01-15T05:47:30;14.13;;;7.33;;
44832;SDS011;30569;51.252;9.830;2024-01-15T05:49:56;15.47;;;8.07;;
44832;SDS011;30569;51.252;9.830;2024-01-15T05:52:22;14.27;;;7.13;;
44832;SDS011;30569;51.252;9.830;2024-01-15T05:54:48;12.17;;;6.20;;
44832;SDS011;30569;51.252;9.830;2024-01-15T05:57:14;16.53;;;7.47;;
44832;SDS011;30569;51.252;9.830;2024-01-15T05:59:39;11.70;;;6.57;;
44832;SDS011;30569;51.252;9.830;2024-01-15T06:02:05;13.83;;;7.40;;
44832;SDS011;30569;51.252;9.830;2024-01-15T06:04:31;15.50;;;7.27;;
44832;SDS011;30569;51.252;9.830;2024-01-15T06:06:56;17.20;;;7.23;;
44832;SDS011;30569;51.252;9.830;2024-01-15T06:09:22;16.27;;;8.17;;
44832;SDS011;30569;51.252;9.830;2024-01-15T06:11:48;16.30;;;7.93;;
44832;SDS011;30569;51.252;9.830;2024-01-15T06:14:13;17.97;;;7.73;;
44832;SDS011;30569;51.252;9.830;2024-01-15T06:16:39;19.23;;;8.10;;
44832;SDS011;30569;51.252;9.830;2024-01-15T06:19:04;17.60;;;8.67;;
44832;SDS011;30569;51.252;9.830;2024-01-15T06:21:30;15.37;;;7.43;;
44832;SDS011;30569;51.252;9.830;2024-01-15T06:23:55;14.23;;;7.43;;
44832;SDS011;30569;51.252;9.830;2024-01-15T06:26:21;16.77;;;8.17;;
44832;SDS011;30569;51.252;9.830;2024-01-15T06:28:47;16.37;;;7.80;;
44832;SDS011;30569;51.252;9.830;2024-01-15T06:31:13;12.90;;;6.73;;
44832;SDS011;30569;51.252;9.830;2024-01-15T06:33:39;20.50;;;10.03;;
44832;SDS011;30569;51.252;9.830;2024-01-15T06:36:05;15.70;;;7.80;;
44832;SDS011;30569;51.252;9.830;2024-01-15T06:38:31;17.63;;;7.83;;
44832;SDS011;30569;51.252;9.830;2024-01-15T06:40:56;17.50;;;9.00;;
44832;SDS011;30569;51.252;9.830;2024-01-15T06:43:22;15.83;;;7.30;;
44832;SDS011;30569;51.252;9.830;2024-01-15T06:45:48;15.93;;;7.57;;
44832;SDS011;30569;51.252;9.830;2024-01-15T06:48:13;13.77;;;6.67;;
44832;SDS011;30569;51.252;9.830;2024-01-15T06:50:42;17.57;;;7.80;;
44832;SDS011;30569;51.252;9.830;2024-01-15T06:53:08;19.03;;;7.30;;
44832;SDS011;30569;51.252;9.830;2024-01-15T06:55:33;12.77;;;6.53;;
44832;SDS011;30569;51.252;9.830;2024-01-15T06:57:59;24.03;;;7.33;;
44832;SDS011;30569;51.252;9.830;2024-01-15T07:00:25;21.53;;;7.37;;
44832;SDS011;30569;51.252;9.830;2024-01-15T07:02:52;20.90;;;7.60;;
44832;SDS011;30569;51.252;9.830;2024-01-15T07:05:18;17.63;;;8.47;;
44832;SDS011;30569;51.252;9.830;2024-01-15T07:07:45;13.20;;;7.03;;
44832;SDS011;30569;51.252;9.830;2024-01-15T07:10:11;14.33;;;7.13;;
44832;SDS011;30569;51.252;9.830;2024-01-15T07:12:36;13.63;;;7.87;;
44832;SDS011;30569;51.252;9.830;2024-01-15T07:15:02;16.13;;;7.43;;
44832;SDS011;30569;51.252;9.830;2024-01-15T07:17:29;20.97;;;7.30;;
44832;SDS011;30569;51.252;9.830;2024-01-15T07:19:56;18.93;;;6.67;;
44832;SDS011;30569;51.252;9.830;2024-01-15T07:22:21;13.97;;;6.53;;
44832;SDS011;30569;51.252;9.830;2024-01-15T07:24:47;20.17;;;7.60;;
44832;SDS011;30569;51.252;9.830;2024-01-15T07:27:12;11.73;;;5.90;;
44832;SDS011;30569;51.252;9.830;2024-01-15T07:29:38;16.43;;;7.70;;
44832;SDS011;30569;51.252;9.830;2024-01-15T07:32:03;15.27;;;8.43;;
44832;SDS011;30569;51.252;9.830;2024-01-15T07:34:29;13.77;;;6.93;;
44832;SDS011;30569;51.252;9.830;2024-01-15T07:36:56;15.73;;;7.73;;
44832;SDS011;30569;51.252;9.830;2024-01-15T07:39:22;15.70;;;7.40;;
44832;SDS011;30569;51.252;9.830;2024-01-15T07:41:49;17.70;;;8.23;;
44832;SDS011;30569;51.252;9.830;2024-01-15T07:44:15;18.33;;;8.03;;
44832;SDS011;30569;51.252;9.830;2024-01-15T07:46:44;15.20;;;8.23;;
44832;SDS011;30569;51.252;9.830;2024-01-15T07:49:13;21.00;;;8.50;;
44832;SDS011;30569;51.252;9.830;2024-01-15T07:51:39;16.37;;;8.27;;
44832;SDS011;30569;51.252;9.830;2024-01-15T07:54:05;15.53;;;8.10;;
44832;SDS011;30569;51.252;9.830;2024-01-15T07:56:31;16.17;;;8.70;;
44832;SDS011;30569;51.252;9.830;2024-01-15T07:58:57;15.17;;;7.80;;
44832;SDS011;30569;51.252;9.830;2024-01-15T08:01:23;21.70;;;8.80;;
44832;SDS011;30569;51.252;9.830;2024-01-15T08:03:48;20.57;;;8.47;;
44832;SDS011;30569;51.252;9.830;2024-01-15T08:06:14;16.07;;;8.40;;
44832;SDS011;30569;51.252;9.830;2024-01-15T08:08:40;24.97;;;8.70;;
44832;SDS011;30569;51.252;9.830;2024-01-15T08:11:05;18.83;;;8.13;;
44832;SDS011;30569;51.252;9.830;2024-01-15T08:13:31;18.33;;;8.47;;
44832;SDS011;30569;51.252;9.830;2024-01-15T08:15:57;13.87;;;8.00;;
44832;SDS011;30569;51.252;9.830;2024-01-15T08:18:22;14.33;;;7.47;;
44832;SDS011;30569;51.252;9.830;2024-01-15T08:20:48;18.30;;;8.30;;
44832;SDS011;30569;51.252;9.830;2024-01-15T08:23:13;17.03;;;7.47;;
44832;SDS011;30569;51.252;9.830;2024-01-15T08:25:39;17.43;;;7.37;;
44832;SDS011;30569;51.252;9.830;2024-01-15T08:28:04;17.93;;;5.73;;
44832;SDS011;30569;51.252;9.830;2024-01-15T08:30:30;15.80;;;8.37;;
44832;SDS011;30569;51.252;9.830;2024-01-15T08:32:56;17.93;;;7.87;;
44832;SDS011;30569;51.252;9.830;2024-01-15T08:35:22;19.13;;;8.17;;
44832;SDS011;30569;51.252;9.830;2024-01-15T08:37:51;17.87;;;8.63;;
44832;SDS011;30569;51.252;9.830;2024-01-15T08:40:17;16.03;;;7.63;;
44832;SDS011;30569;51.252;9.830;2024-01-15T08:42:43;16.73;;;8.27;;
44832;SDS011;30569;51.252;9.830;2024-01-15T08:45:12;16.07;;;7.80;;
44832;SDS011;30569;51.252;9.830;2024-01-15T08:47:38;16.23;;;7.83;;
44832;SDS011;30569;51.252;9.830;2024-01-15T08:50:04;15.33;;;7.73;;
44832;SDS011;30569;51.252;9.830;2024-01-15T08:52:30;15.60;;;8.50;;
44832;SDS011;30569;51.252;9.830;2024-01-15T08:54:56;15.33;;;7.63;;
44832;SDS011;30569;51.252;9.830;2024-01-15T08:57:22;12.80;;;6.67;;
44832;SDS011;30569;51.252;9.830;2024-01-15T08:59:48;16.77;;;7.77;;
44832;SDS011;30569;51.252;9.830;2024-01-15T09:02:13;16.97;;;9.70;;
44832;SDS011;30569;51.252;9.830;2024-01-15T09:04:39;16.63;;;8.70;;
44832;SDS011;30569;51.252;9.830;2024-01-15T09:07:05;19.57;;;8.23;;
44832;SDS011;30569;51.252;9.830;2024-01-15T09:09:31;21.83;;;7.63;;
44832;SDS011;30569;51.252;9.830;2024-01-15T09:11:57;14.60;;;7.50;;
44832;SDS011;30569;51.252;9.830;2024-01-15T09:14:22;15.50;;;8.03;;
44832;SDS011;30569;51.252;9.830;2024-01-15T09:16:49;13.67;;;6.63;;
44832;SDS011;30569;51.252;9.830;2024-01-15T09:19:14;17.23;;;8.53;;
44832;SDS011;30569;51.252;9.830;2024-01-15T09:21:40;16.77;;;8.97;;
44832;SDS011;30569;51.252;9.830;2024-01-15T09:24:05;17.07;;;8.43;;
44832;SDS011;30569;51.252;9.830;2024-01-15T09:26:31;19.73;;;8.13;;
44832;SDS011;30569;51.252;9.830;2024-01-15T09:28:57;18.03;;;8.33;;
44832;SDS011;30569;51.252;9.830;2024-01-15T09:31:22;14.50;;;7.27;;
44832;SDS011;30569;51.252;9.830;2024-01-15T09:33:48;16.23;;;7.60;;
44832;SDS011;30569;51.252;9.830;2024-01-15T09:36:17;15.07;;;7.27;;
44832;SDS011;30569;51.252;9.830;2024-01-15T09:38:43;14.23;;;6.50;;
44832;SDS011;30569;51.252;9.830;2024-01-15T09:41:09;16.93;;;7.43;;
44832;SDS011;30569;51.252;9.830;2024-01-15T09:43:35;13.30;;;7.13;;
44832;SDS011;30569;51.252;9.830;2024-01-15T09:46:02;16.90;;;7.37;;
44832;SDS011;30569;51.252;9.830;2024-01-15T09:48:28;14.03;;;7.60;;
44832;SDS011;30569;51.252;9.830;2024-01-15T09:50:54;14.27;;;6.60;;
44832;SDS011;30569;51.252;9.830;2024-01-15T09:53:22;18.27;;;8.83;;
44832;SDS011;30569;51.252;9.830;2024-01-15T09:55:49;53.93;;;20.27;;
44832;SDS011;30569;51.252;9.830;2024-01-15T09:58:15;111.57;;;35.33;;
44832;SDS011;30569;51.252;9.830;2024-01-15T10:00:40;22.87;;;9.37;;
44832;SDS011;30569;51.252;9.830;2024-01-15T10:03:09;15.00;;;7.30;;
44832;SDS011;30569;51.252;9.830;2024-01-15T10:05:36;12.93;;;6.27;;
44832;SDS011;30569;51.252;9.830;2024-01-15T10:08:02;17.07;;;8.70;;
44832;SDS011;30569;51.252;9.830;2024-01-15T10:10:29;15.80;;;7.13;;
44832;SDS011;30569;51.252;9.830;2024-01-15T10:12:54;14.80;;;7.23;;
44832;SDS011;30569;51.252;9.830;2024-01-15T10:15:23;14.33;;;7.10;;
44832;SDS011;30569;51.252;9.830;2024-01-15T10:17:51;19.40;;;8.53;;
44832;SDS011;30569;51.252;9.830;2024-01-15T10:20:17;16.40;;;7.80;;
44832;SDS011;30569;51.252;9.830;2024-01-15T10:22:43;18.70;;;7.43;;
44832;SDS011;30569;51.252;9.830;2024-01-15T10:25:13;16.07;;;8.00;;
44832;SDS011;30569;51.252;9.830;2024-01-15T10:27:42;13.53;;;7.03;;
44832;SDS011;30569;51.252;9.830;2024-01-15T10:30:09;13.47;;;7.47;;
44832;SDS011;30569;51.252;9.830;2024-01-15T10:32:35;17.00;;;8.47;;
44832;SDS011;30569;51.252;9.830;2024-01-15T10:35:00;15.87;;;7.60;;
44832;SDS011;30569;51.252;9.830;2024-01-15T10:37:27;15.47;;;7.03;;
44832;SDS011;30569;51.252;9.830;2024-01-15T10:39:52;15.77;;;7.70;;
44832;SDS011;30569;51.252;9.830;2024-01-15T10:42:18;18.37;;;7.57;;
44832;SDS011;30569;51.252;9.830;2024-01-15T10:44:44;16.23;;;7.97;;
44832;SDS011;30569;51.252;9.830;2024-01-15T10:47:12;15.77;;;7.67;;
44832;SDS011;30569;51.252;9.830;2024-01-15T10:49:38;13.67;;;7.00;;
44832;SDS011;30569;51.252;9.830;2024-01-15T10:52:04;12.93;;;7.13;;
44832;SDS011;30569;51.252;9.830;2024-01-15T10:54:30;15.40;;;7.17;;
44832;SDS011;30569;51.252;9.830;2024-01-15T10:56:57;14.33;;;6.97;;
44832;SDS011;30569;51.252;9.830;2024-01-15T10:59:23;14.50;;;5.73;;
44832;SDS011;30569;51.252;9.830;2024-01-15T11:01:49;15.97;;;7.43;;
44832;SDS011;30569;51.252;9.830;2024-01-15T11:04:15;19.93;;;7.73;;
44832;SDS011;30569;51.252;9.830;2024-01-15T11:06:44;22.07;;;7.80;;
44832;SDS011;30569;51.252;9.830;2024-01-15T11:09:11;20.07;;;8.40;;
44832;SDS011;30569;51.252;9.830;2024-01-15T11:11:41;19.20;;;7.73;;
44832;SDS011;30569;51.252;9.830;2024-01-15T11:14:09;19.70;;;8.50;;
44832;SDS011;30569;51.252;9.830;2024-01-15T11:16:54;18.37;;;7.50;;
44832;SDS011;30569;51.252;9.830;2024-01-15T11:19:21;16.47;;;8.03;;
44832;SDS011;30569;51.252;9.830;2024-01-15T11:21:47;17.37;;;6.80;;
44832;SDS011;30569;51.252;9.830;2024-01-15T11:24:32;20.27;;;8.63;;
44832;SDS011;30569;51.252;9.830;2024-01-15T11:27:00;15.40;;;7.57;;
44832;SDS011;30569;51.252;9.830;2024-01-15T11:37:19;14.57;;;6.07;;
44832;SDS011;30569;51.252;9.830;2024-01-15T11:39:44;16.20;;;7.23;;
44832;SDS011;30569;51.252;9.830;2024-01-15T11:42:11;14.40;;;7.97;;
44832;SDS011;30569;51.252;9.830;2024-01-15T11:44:38;15.63;;;7.83;;
44832;SDS011;30569;51.252;9.830;2024-01-15T11:47:05;13.93;;;6.47;;
44832;SDS011;30569;51.252;9.830;2024-01-15T11:52:00;14.30;;;7.20;;
44832;SDS011;30569;51.252;9.830;2024-01-15T11:54:27;14.50;;;7.30;;
44832;SDS011;30569;51.252;9.830;2024-01-15T11:56:59;15.00;;;7.30;;
44832;SDS011;30569;51.252;9.830;2024-01-15T11:59:29;11.67;;;6.00;;
44832;SDS011;30569;51.252;9.830;2024-01-15T12:01:54;16.00;;;6.50;;
44832;SDS011;30569;51.252;9.830;2024-01-15T12:04:20;9.50;;;4.57;;
44832;SDS011;30569;51.252;9.830;2024-01-15T12:06:46;10.33;;;5.73;;
44832;SDS011;30569;51.252;9.830;2024-01-15T12:09:12;12.90;;;5.83;;
44832;SDS011;30569;51.252;9.830;2024-01-15T12:11:37;12.53;;;6.30;;
44832;SDS011;30569;51.252;9.830;2024-01-15T12:14:07;12.63;;;6.70;;
44832;SDS011;30569;51.252;9.830;2024-01-15T12:16:32;11.33;;;5.40;;
44832;SDS011;30569;51.252;9.830;2024-01-15T12:18:59;11.43;;;5.83;;
44832;SDS011;30569;51.252;9.830;2024-01-15T12:21:26;11.33;;;5.63;;
44832;SDS011;30569;51.252;9.830;2024-01-15T12:23:51;12.03;;;5.47;;
44832;SDS011;30569;51.252;9.830;2024-01-15T12:26:17;12.83;;;6.50;;
44832;SDS011;30569;51.252;9.830;2024-01-15T12:28:43;11.50;;;5.57;;
44832;SDS011;30569;51.252;9.830;2024-01-15T12:31:08;10.33;;;5.47;;
44832;SDS011;30569;51.252;9.830;2024-01-15T12:33:34;11.50;;;5.30;;
44832;SDS011;30569;51.252;9.830;2024-01-15T12:35:59;8.33;;;5.00;;
44832;SDS011;30569;51.252;9.830;2024-01-15T12:38:25;11.37;;;5.27;;
44832;SDS011;30569;51.252;9.830;2024-01-15T12:40:53;9.30;;;4.80;;
44832;SDS011;30569;51.252;9.830;2024-01-15T12:43:19;9.97;;;5.10;;
44832;SDS011;30569;51.252;9.830;2024-01-15T12:45:45;10.40;;;5.20;;
44832;SDS011;30569;51.252;9.830;2024-01-15T12:48:11;9.37;;;4.63;;
44832;SDS011;30569;51.252;9.830;2024-01-15T12:50:38;10.70;;;5.07;;
44832;SDS011;30569;51.252;9.830;2024-01-15T12:53:03;10.40;;;5.33;;
44832;SDS011;30569;51.252;9.830;2024-01-15T12:55:29;11.50;;;5.20;;
44832;SDS011;30569;51.252;9.830;2024-01-15T12:57:55;9.10;;;4.80;;
44832;SDS011;30569;51.252;9.830;2024-01-15T13:00:20;10.53;;;5.60;;
44832;SDS011;30569;51.252;9.830;2024-01-15T13:02:46;10.07;;;5.30;;
44832;SDS011;30569;51.252;9.830;2024-01-15T13:05:11;8.97;;;4.87;;
44832;SDS011;30569;51.252;9.830;2024-01-15T13:07:37;7.30;;;4.23;;
44832;SDS011;30569;51.252;9.830;2024-01-15T13:10:03;10.43;;;4.80;;
44832;SDS011;30569;51.252;9.830;2024-01-15T13:12:30;7.77;;;4.97;;
44832;SDS011;30569;51.252;9.830;2024-01-15T13:14:55;9.53;;;4.80;;
44832;SDS011;30569;51.252;9.830;2024-01-15T13:17:23;9.80;;;4.70;;
44832;SDS011;30569;51.252;9.830;2024-01-15T13:19:48;13.07;;;4.70;;
44832;SDS011;30569;51.252;9.830;2024-01-15T13:22:14;8.40;;;4.50;;
44832;SDS011;30569;51.252;9.830;2024-01-15T13:24:39;12.60;;;5.53;;
44832;SDS011;30569;51.252;9.830;2024-01-15T13:27:05;8.97;;;4.37;;
44832;SDS011;30569;51.252;9.830;2024-01-15T13:29:31;8.13;;;3.30;;
44832;SDS011;30569;51.252;9.830;2024-01-15T13:31:57;9.30;;;4.33;;
44832;SDS011;30569;51.252;9.830;2024-01-15T13:34:23;9.60;;;3.50;;
44832;SDS011;30569;51.252;9.830;2024-01-15T13:36:49;6.40;;;3.03;;
44832;SDS011;30569;51.252;9.830;2024-01-15T13:39:18;14.80;;;5.87;;
44832;SDS011;30569;51.252;9.830;2024-01-15T13:41:48;11.50;;;4.70;;
44832;SDS011;30569;51.252;9.830;2024-01-15T13:44:14;9.67;;;5.33;;
44832;SDS011;30569;51.252;9.830;2024-01-15T13:46:40;8.63;;;4.10;;
44832;SDS011;30569;51.252;9.830;2024-01-15T13:49:06;10.13;;;4.60;;
44832;SDS011;30569;51.252;9.830;2024-01-15T13:51:32;7.70;;;3.93;;
44832;SDS011;30569;51.252;9.830;2024-01-15T13:53:57;6.13;;;3.53;;
44832;SDS011;30569;51.252;9.830;2024-01-15T13:56:23;7.23;;;3.13;;
44832;SDS011;30569;51.252;9.830;2024-01-15T13:58:49;6.93;;;4.00;;
44832;SDS011;30569;51.252;9.830;2024-01-15T14:01:15;9.47;;;3.53;;
44832;SDS011;30569;51.252;9.830;2024-01-15T14:03:42;9.77;;;4.20;;
44832;SDS011;30569;51.252;9.830;2024-01-15T14:06:08;8.30;;;4.00;;
44832;SDS011;30569;51.252;9.830;2024-01-15T14:08:34;29.87;;;10.17;;
44832;SDS011;30569;51.252;9.830;2024-01-15T14:11:01;28.87;;;13.87;;
44832;SDS011;30569;51.252;9.830;2024-01-15T14:13:27;7.27;;;3.43;;
44832;SDS011;30569;51.252;9.830;2024-01-15T14:15:53;8.17;;;4.53;;
44832;SDS011;30569;51.252;9.830;2024-01-15T14:18:18;9.77;;;2.43;;
44832;SDS011;30569;51.252;9.830;2024-01-15T14:20:44;17.20;;;6.83;;
44832;SDS011;30569;51.252;9.830;2024-01-15T14:23:09;10.50;;;4.60;;
44832;SDS011;30569;51.252;9.830;2024-01-15T14:25:35;8.50;;;3.03;;
44832;SDS011;30569;51.252;9.830;2024-01-15T14:28:01;7.33;;;2.40;;
44832;SDS011;30569;51.252;9.830;2024-01-15T14:30:26;5.93;;;2.60;;
44832;SDS011;30569;51.252;9.830;2024-01-15T14:32:52;9.77;;;2.90;;
44832;SDS011;30569;51.252;9.830;2024-01-15T14:35:17;6.70;;;2.37;;
44832;SDS011;30569;51.252;9.830;2024-01-15T14:37:43;29.77;;;8.87;;
44832;SDS011;30569;51.252;9.830;2024-01-15T14:40:09;7.97;;;3.10;;